createdAt,value
2022-12-03T00:03:11.155Z,83.81
2022-12-03T00:18:14.431Z,83.85
2022-12-03T00:33:17.647Z,83.88
2022-12-03T00:48:20.813Z,85.23
2022-12-03T01:03:24.195Z,85.91
2022-12-03T01:18:27.430Z,86.32
2022-12-03T01:33:30.582Z,86.63
2022-12-03T01:48:38.032Z,86.90
2022-12-03T02:03:41.460Z,87.24
2022-12-03T02:18:44.793Z,87.79
2022-12-03T02:33:48.127Z,88.84
2022-12-03T02:48:51.356Z,88.52
2022-12-03T03:03:55.246Z,88.48
2022-12-03T03:18:58.973Z,88.61
2022-12-03T03:34:02.174Z,88.27
2022-12-03T03:49:06.525Z,88.11
2022-12-03T04:04:19.531Z,87.99
2022-12-03T04:19:22.713Z,88.50
2022-12-03T04:34:44.745Z,88.26
2022-12-03T04:49:50.423Z,87.53
2022-12-03T05:04:53.802Z,86.98
2022-12-03T05:20:15.933Z,87.12
2022-12-03T05:35:19.091Z,86.51
2022-12-03T05:50:25.154Z,85.93
2022-12-03T06:05:28.386Z,85.50
2022-12-03T06:20:31.677Z,85.34
2022-12-03T06:35:34.834Z,85.12
2022-12-03T06:50:38.112Z,86.05
2022-12-03T07:05:41.432Z,85.88
2022-12-03T07:20:44.608Z,86.85
2022-12-03T07:35:47.832Z,87.29
2022-12-03T07:50:51.989Z,87.94
2022-12-03T08:05:55.292Z,87.70
2022-12-03T08:20:58.580Z,87.07
2022-12-03T08:36:23.316Z,86.93
2022-12-03T08:51:27.459Z,86.74
2022-12-03T09:06:30.846Z,86.89
2022-12-03T09:21:34.052Z,86.23
2022-12-03T09:36:37.200Z,86.25
2022-12-03T09:51:40.488Z,84.78
2022-12-03T10:06:46.032Z,85.23
2022-12-03T10:21:49.691Z,86.10
2022-12-03T10:37:19.469Z,85.98
2022-12-03T10:52:25.844Z,85.32
2022-12-03T11:07:31.171Z,86.38
2022-12-03T11:22:43.819Z,85.33
2022-12-03T11:37:47.244Z,85.24
2022-12-03T11:52:55.880Z,85.41
2022-12-03T12:08:01.271Z,86.71
2022-12-03T12:23:22.876Z,86.50
2022-12-03T12:38:28.518Z,84.63
2022-12-03T12:53:33.690Z,84.33
2022-12-03T13:08:44.488Z,83.97
2022-12-03T13:23:49.654Z,83.92
2022-12-03T13:38:53.634Z,83.67
2022-12-03T13:53:59.666Z,83.98
2022-12-03T14:09:03.156Z,84.64
2022-12-03T14:24:07.235Z,84.47
2022-12-03T14:39:10.979Z,84.77
2022-12-03T14:54:14.148Z,85.69
2022-12-03T15:09:17.604Z,85.69
2022-12-03T15:24:21.018Z,85.66
2022-12-03T15:39:24.297Z,86.20
2022-12-03T15:54:27.436Z,86.26
2022-12-03T16:09:30.686Z,87.23
2022-12-03T16:24:33.854Z,86.91
2022-12-03T16:39:37.656Z,87.64
2022-12-03T16:54:41.016Z,87.68
2022-12-03T17:09:45.344Z,88.00
2022-12-03T17:24:48.530Z,89.65
2022-12-03T17:39:52.108Z,90.19
2022-12-03T17:55:10.921Z,89.63
2022-12-03T18:10:17.515Z,90.30
2022-12-03T18:25:20.676Z,91.05
2022-12-03T18:40:27.355Z,92.10
2022-12-03T18:55:34.705Z,92.00
2022-12-03T19:10:38.061Z,92.31
2022-12-03T19:25:41.255Z,92.99
2022-12-03T19:40:44.893Z,93.56
2022-12-03T19:55:48.307Z,93.59
2022-12-03T20:10:51.807Z,94.04
2022-12-03T20:25:55.320Z,94.08
2022-12-03T20:41:06.872Z,94.54
2022-12-03T20:56:10.835Z,95.11
2022-12-03T21:11:18.741Z,95.18
2022-12-03T21:26:22.533Z,95.34
2022-12-03T21:41:26.492Z,95.85
2022-12-03T21:56:32.118Z,96.11
2022-12-03T22:11:35.536Z,95.94
2022-12-03T22:26:39.757Z,96.53
2022-12-03T22:41:42.961Z,97.09
2022-12-03T22:56:46.259Z,97.34
2022-12-03T23:11:49.709Z,98.12
2022-12-03T23:34:55.164Z,98.64
2022-12-03T23:49:58.570Z,98.68
